Time;durP1;ratioP1;P1;durP2;ratioP2;P2;SDS_P1;SDS_P2;PMS_P1;PMS_P2;Temp;Humidity;BMP_temperature;BMP_pressure;BME280_temperature;BME280_humidity;BME280_pressure;Samples;Min_cycle;Max_cycle;Signal;HPM_P1;HPM_P2
2023/05/17 00:01:26;;;;;;;3.53;2.67;;;11.60;99.90;;;;;;5050716;28;20220;-73
2023/05/17 00:03:53;;;;;;;4.00;3.17;;;11.60;99.90;;;;;;5050424;28;20204;-74
2023/05/17 00:06:19;;;;;;;5.50;3.17;;;11.50;99.90;;;;;;5050810;28;20223;-74
2023/05/17 00:08:45;;;;;;;5.43;2.90;;;11.60;99.90;;;;;;5050967;28;20917;-73
2023/05/17 00:11:10;;;;;;;3.03;2.43;;;11.60;99.90;;;;;;5050478;28;20417;-73
2023/05/17 00:13:37;;;;;;;4.57;3.27;;;11.50;99.90;;;;;;5050239;28;20196;-73
2023/05/17 00:16:03;;;;;;;5.07;2.30;;;11.50;99.90;;;;;;5050683;28;20627;-73
2023/05/17 00:18:29;;;;;;;4.67;3.37;;;11.40;99.90;;;;;;5050477;28;20453;-73
2023/05/17 00:20:55;;;;;;;5.80;3.23;;;11.40;99.90;;;;;;5049366;28;20440;-73
2023/05/17 00:23:20;;;;;;;4.23;2.77;;;11.40;99.90;;;;;;5049980;28;20212;-75
2023/05/17 00:25:46;;;;;;;5.80;3.20;;;11.30;99.90;;;;;;5050511;28;20178;-74
2023/05/17 00:28:12;;;;;;;4.10;2.70;;;11.30;99.90;;;;;;5049288;28;20180;-74
2023/05/17 00:30:37;;;;;;;4.27;2.40;;;11.30;99.90;;;;;;5050406;28;20219;-74
2023/05/17 00:33:03;;;;;;;3.80;2.80;;;11.30;99.90;;;;;;5049863;28;20275;-74
2023/05/17 00:35:29;;;;;;;3.43;2.60;;;11.30;99.90;;;;;;5050462;28;20189;-74
2023/05/17 00:37:55;;;;;;;4.83;2.90;;;11.30;99.90;;;;;;5049904;28;20182;-74
2023/05/17 00:40:20;;;;;;;5.63;3.40;;;11.20;99.90;;;;;;5050084;28;20816;-74
2023/05/17 00:42:46;;;;;;;4.60;2.60;;;11.30;99.90;;;;;;5049338;28;20209;-74
2023/05/17 00:45:12;;;;;;;5.13;2.90;;;11.20;99.90;;;;;;5049992;28;20177;-73
2023/05/17 00:47:38;;;;;;;4.70;3.20;;;11.20;99.90;;;;;;5049936;28;20408;-74
2023/05/17 00:50:05;;;;;;;3.83;3.00;;;11.20;99.90;;;;;;5048709;28;20213;-73
2023/05/17 00:52:31;;;;;;;4.60;2.93;;;11.20;99.90;;;;;;5048604;28;20189;-74
2023/05/17 00:54:57;;;;;;;3.03;2.67;;;11.20;99.90;;;;;;5049632;28;20409;-74
2023/05/17 00:57:23;;;;;;;8.10;3.20;;;11.20;99.90;;;;;;5049647;28;20478;-74
2023/05/17 00:59:50;;;;;;;3.73;3.30;;;11.20;99.90;;;;;;5049735;28;20416;-73
2023/05/17 01:02:16;;;;;;;4.30;2.93;;;11.10;99.90;;;;;;5048272;28;20573;-74
2023/05/17 01:04:43;;;;;;;4.43;3.07;;;11.10;99.90;;;;;;5049311;28;20409;-73
2023/05/17 01:07:09;;;;;;;4.17;2.80;;;11.10;99.90;;;;;;5049391;28;20408;-73
2023/05/17 01:09:36;;;;;;;6.67;3.20;;;11.10;99.90;;;;;;5049617;28;20467;-74
2023/05/17 01:12:21;;;;;;;3.97;2.80;;;11.10;99.90;;;;;;5049651;28;20439;-75
2023/05/17 01:15:09;;;;;;;6.70;3.20;;;11.00;99.90;;;;;;5048059;28;20420;-74
2023/05/17 01:17:59;;;;;;;4.00;2.87;;;10.90;99.90;;;;;;5049214;28;20507;-74
2023/05/17 01:20:30;;;;;;;5.00;3.27;;;10.90;99.90;;;;;;5049496;28;20416;-72
2023/05/17 01:23:23;;;;;;;7.10;3.90;;;10.80;99.90;;;;;;5048969;28;20468;-74
2023/05/17 01:26:08;;;;;;;5.00;3.10;;;10.80;99.90;;;;;;5049389;28;20416;-73
2023/05/17 01:28:37;;;;;;;7.10;3.30;;;10.70;99.90;;;;;;5048920;28;20400;-74
2023/05/17 01:31:03;;;;;;;5.10;3.57;;;10.70;99.90;;;;;;5049108;28;20447;-73
2023/05/17 01:33:28;;;;;;;6.30;3.67;;;10.70;99.90;;;;;;5048598;28;20464;-74
2023/05/17 01:35:54;;;;;;;5.60;3.63;;;10.80;99.90;;;;;;5049199;28;20950;-75
2023/05/17 01:38:20;;;;;;;8.23;3.60;;;10.80;99.90;;;;;;5048693;28;20533;-74
2023/05/17 01:41:03;;;;;;;6.23;3.53;;;10.80;99.90;;;;;;5048985;28;20174;-73
2023/05/17 01:43:44;;;;;;;4.37;3.30;;;10.70;99.90;;;;;;5048531;28;20985;-74
2023/05/17 01:46:37;;;;;;;6.60;3.70;;;10.70;99.90;;;;;;5049071;28;20523;-74
2023/05/17 01:49:28;;;;;;;6.63;3.67;;;10.70;99.90;;;;;;5048667;28;20855;-74
2023/05/17 01:52:04;;;;;;;6.80;3.43;;;10.60;99.90;;;;;;5049110;28;20412;-74
2023/05/17 01:54:49;;;;;;;7.23;3.50;;;10.60;99.90;;;;;;5047285;28;20431;-74
2023/05/17 01:57:19;;;;;;;7.07;3.70;;;10.60;99.90;;;;;;5048524;28;20419;-74
2023/05/17 01:59:47;;;;;;;8.67;3.73;;;10.70;99.90;;;;;;5048520;28;20446;-74
2023/05/17 02:02:13;;;;;;;6.03;3.97;;;10.70;99.90;;;;;;5048547;28;20458;-73
2023/05/17 02:04:38;;;;;;;8.30;3.80;;;10.70;99.90;;;;;;5048384;28;20412;-74
2023/05/17 02:07:04;;;;;;;6.30;4.17;;;10.70;99.90;;;;;;5048436;28;20256;-73
2023/05/17 02:09:30;;;;;;;5.47;3.57;;;10.70;99.90;;;;;;5048555;28;20178;-74
2023/05/17 02:11:56;;;;;;;9.57;3.93;;;10.70;99.90;;;;;;5048575;28;20184;-74
2023/05/17 02:14:22;;;;;;;12.73;4.10;;;10.70;99.90;;;;;;5048105;28;20661;-74
2023/05/17 02:16:47;;;;;;;6.47;3.80;;;10.60;99.90;;;;;;5046962;28;20424;-74
2023/05/17 02:19:13;;;;;;;7.03;4.07;;;10.60;99.90;;;;;;5048356;28;20412;-73
2023/05/17 02:21:39;;;;;;;6.93;3.90;;;10.60;99.90;;;;;;5046925;28;20293;-73
2023/05/17 02:24:05;;;;;;;7.93;3.70;;;10.60;99.90;;;;;;5047938;28;20515;-73
2023/05/17 02:26:31;;;;;;;6.57;3.90;;;10.60;99.90;;;;;;5048346;28;20825;-74
2023/05/17 02:28:57;;;;;;;5.60;3.63;;;10.50;99.90;;;;;;5048114;28;20166;-73
2023/05/17 02:31:26;;;;;;;6.97;3.33;;;10.50;99.90;;;;;;5048257;28;20170;-74
2023/05/17 02:33:53;;;;;;;5.80;3.80;;;10.50;99.90;;;;;;5048064;28;20803;-73
2023/05/17 02:36:18;;;;;;;8.03;3.90;;;10.50;99.90;;;;;;5048624;28;20554;-74
2023/05/17 02:38:44;;;;;;;5.13;3.53;;;10.40;99.90;;;;;;5047945;28;20495;-74
2023/05/17 02:41:10;;;;;;;8.50;4.70;;;10.40;99.90;;;;;;5047985;28;20184;-73
2023/05/17 02:43:35;;;;;;;9.30;3.90;;;10.40;99.90;;;;;;5047917;28;20217;-74
2023/05/17 02:46:01;;;;;;;5.33;3.90;;;10.40;99.90;;;;;;5050971;28;20251;-74
2023/05/17 02:48:27;;;;;;;8.23;4.87;;;10.40;99.90;;;;;;5052170;28;20215;-74
2023/05/17 02:50:52;;;;;;;9.63;4.67;;;10.40;99.90;;;;;;5051974;28;20181;-74
2023/05/17 02:53:18;;;;;;;11.77;4.80;;;10.30;99.90;;;;;;5052002;28;20225;-74
2023/05/17 02:55:44;;;;;;;9.90;4.33;;;10.30;99.90;;;;;;5052222;28;20181;-74
2023/05/17 02:58:10;;;;;;;7.17;4.40;;;10.30;99.90;;;;;;5051889;28;20178;-74
2023/05/17 03:00:35;;;;;;;6.40;4.23;;;10.30;99.90;;;;;;5050800;28;20177;-74
2023/05/17 03:03:01;;;;;;;10.80;4.40;;;10.30;99.90;;;;;;5051517;28;20558;-74
2023/05/17 03:05:27;;;;;;;8.60;4.80;;;10.30;99.90;;;;;;5051868;28;20185;-73
2023/05/17 03:07:52;;;;;;;6.67;5.10;;;10.40;99.90;;;;;;5051615;28;20174;-74
2023/05/17 03:10:18;;;;;;;11.83;4.83;;;10.40;99.90;;;;;;5051738;28;20257;-74
2023/05/17 03:12:44;;;;;;;11.40;5.17;;;10.40;99.90;;;;;;5050272;28;20205;-74
2023/05/17 03:15:10;;;;;;;8.27;4.70;;;10.50;99.90;;;;;;5051567;28;20181;-74
2023/05/17 03:17:36;;;;;;;6.00;5.07;;;10.40;99.90;;;;;;5033771;28;20469;-74
2023/05/17 03:20:02;;;;;;;9.87;5.20;;;10.50;99.90;;;;;;5051387;28;20423;-74
2023/05/17 03:22:27;;;;;;;7.47;4.50;;;10.50;99.90;;;;;;5050310;28;20201;-74
2023/05/17 03:24:53;;;;;;;11.93;5.20;;;10.50;99.90;;;;;;5051035;28;20182;-74
2023/05/17 03:27:19;;;;;;;7.07;4.80;;;10.40;99.90;;;;;;5051496;28;20170;-74
2023/05/17 03:29:44;;;;;;;9.20;5.67;;;10.40;99.90;;;;;;5051468;28;20813;-73
2023/05/17 03:32:10;;;;;;;8.03;5.13;;;10.50;99.90;;;;;;5050108;28;20173;-74
2023/05/17 03:34:36;;;;;;;9.17;5.37;;;10.50;99.90;;;;;;5050832;28;20221;-74
2023/05/17 03:37:01;;;;;;;9.60;5.37;;;10.50;99.90;;;;;;5049883;28;20931;-74
2023/05/17 03:39:27;;;;;;;7.00;5.17;;;10.50;99.90;;;;;;5051201;28;20178;-73
2023/05/17 03:41:53;;;;;;;9.27;5.43;;;10.50;99.90;;;;;;5051167;28;20556;-74
2023/05/17 03:44:19;;;;;;;8.67;5.23;;;10.50;99.90;;;;;;5050964;28;20694;-73
2023/05/17 03:46:45;;;;;;;8.30;5.17;;;10.50;99.90;;;;;;5049745;28;20506;-74
2023/05/17 03:49:10;;;;;;;7.83;5.17;;;10.50;99.90;;;;;;5051080;28;20182;-73
2023/05/17 03:51:36;;;;;;;11.67;6.37;;;10.50;99.90;;;;;;5050853;28;20170;-74
2023/05/17 03:54:02;;;;;;;11.50;5.40;;;10.60;99.90;;;;;;5050464;28;20276;-73
2023/05/17 03:56:27;;;;;;;10.57;6.40;;;10.50;99.90;;;;;;5049522;28;20181;-73
2023/05/17 03:58:53;;;;;;;9.43;5.30;;;10.60;99.90;;;;;;5050954;28;20296;-74
2023/05/17 04:01:19;;;;;;;11.00;5.73;;;10.60;99.90;;;;;;5050947;28;20188;-74
2023/05/17 04:03:46;;;;;;;7.37;5.70;;;10.60;99.90;;;;;;5050566;28;20198;-74
2023/05/17 04:06:13;;;;;;;11.43;5.37;;;10.60;99.90;;;;;;5051010;28;20781;-73
2023/05/17 04:08:39;;;;;;;14.53;6.20;;;10.60;99.90;;;;;;5050603;28;20413;-75
2023/05/17 04:11:12;;;;;;;12.30;5.20;;;10.60;99.90;;;;;;5049472;28;20400;-74
2023/05/17 04:13:41;;;;;;;8.67;5.70;;;10.70;99.90;;;;;;5050421;28;20200;-74
2023/05/17 04:16:08;;;;;;;13.87;6.37;;;10.60;99.90;;;;;;5050711;28;20935;-74
2023/05/17 04:18:37;;;;;;;10.10;5.67;;;10.70;99.90;;;;;;5050424;28;20405;-74
2023/05/17 04:21:04;;;;;;;13.20;5.97;;;10.70;99.90;;;;;;5050640;28;20416;-73
2023/05/17 04:23:33;;;;;;;14.13;6.60;;;10.70;99.90;;;;;;5050214;28;20549;-73
2023/05/17 04:25:59;;;;;;;15.40;5.43;;;10.70;99.90;;;;;;5050552;28;20482;-74
2023/05/17 04:28:25;;;;;;;12.40;5.90;;;10.70;99.90;;;;;;5050340;28;20412;-74
2023/05/17 04:30:51;;;;;;;12.50;6.00;;;10.70;99.90;;;;;;5050218;28;20257;-74
2023/05/17 04:33:17;;;;;;;15.00;6.20;;;10.70;99.90;;;;;;5050076;28;20524;-73
2023/05/17 04:35:43;;;;;;;11.90;6.27;;;10.70;99.90;;;;;;5050356;28;20454;-73
2023/05/17 04:38:09;;;;;;;12.67;6.37;;;10.80;99.90;;;;;;5048880;28;20416;-74
2023/05/17 04:40:36;;;;;;;11.47;6.97;;;10.80;99.90;;;;;;5050206;28;20182;-74
2023/05/17 04:43:02;;;;;;;12.43;6.20;;;10.80;99.90;;;;;;5050345;28;20720;-74
2023/05/17 04:45:27;;;;;;;11.07;6.73;;;10.80;99.90;;;;;;5047785;28;20432;-73
2023/05/17 04:47:53;;;;;;;12.00;7.50;;;10.80;99.90;;;;;;5041654;28;20269;-74
2023/05/17 04:50:19;;;;;;;13.03;6.80;;;10.90;99.90;;;;;;5043310;28;20197;-74
2023/05/17 04:52:46;;;;;;;13.37;6.87;;;10.90;99.90;;;;;;5046092;28;20677;-73
2023/05/17 04:55:12;;;;;;;10.73;7.40;;;10.90;99.90;;;;;;5037974;28;20273;-74
2023/05/17 04:57:38;;;;;;;14.47;7.00;;;11.00;99.90;;;;;;5028582;28;20496;-73
2023/05/17 05:00:08;;;;;;;9.73;5.83;;;11.00;99.90;;;;;;5036914;28;20477;-74
2023/05/17 05:02:35;;;;;;;9.90;6.80;;;11.00;99.90;;;;;;5043524;28;20223;-74
2023/05/17 05:05:00;;;;;;;13.97;6.23;;;11.00;99.90;;;;;;5040820;28;20421;-74
2023/05/17 05:07:26;;;;;;;12.97;7.17;;;11.00;99.90;;;;;;5029316;28;20428;-74
2023/05/17 05:09:52;;;;;;;12.80;7.33;;;11.00;99.90;;;;;;5029708;28;20186;-74
2023/05/17 05:12:18;;;;;;;11.47;6.33;;;11.10;99.90;;;;;;5029720;28;20746;-74
2023/05/17 05:14:43;;;;;;;10.73;6.37;;;11.10;99.90;;;;;;5029663;28;20934;-73
2023/05/17 05:17:09;;;;;;;9.40;5.97;;;11.10;99.90;;;;;;5029551;28;20182;-74
2023/05/17 05:19:35;;;;;;;10.20;6.03;;;11.10;99.90;;;;;;5029570;28;20627;-74
2023/05/17 05:22:01;;;;;;;14.13;6.57;;;11.20;99.90;;;;;;5029512;28;20460;-74
2023/05/17 05:24:27;;;;;;;12.83;5.93;;;11.20;99.90;;;;;;5034047;28;20550;-74
2023/05/17 05:26:52;;;;;;;12.83;6.10;;;11.20;99.90;;;;;;5047629;28;20492;-74
2023/05/17 05:29:18;;;;;;;14.77;7.33;;;11.30;99.90;;;;;;5049144;28;20278;-74
2023/05/17 05:31:44;;;;;;;12.37;6.20;;;11.30;99.90;;;;;;5049147;28;20174;-74
2023/05/17 05:34:09;;;;;;;10.70;5.97;;;11.30;99.90;;;;;;5047650;28;20456;-74
2023/05/17 05:36:35;;;;;;;8.90;6.00;;;11.30;99.90;;;;;;5049564;28;20185;-73
2023/05/17 05:39:01;;;;;;;16.47;6.30;;;11.30;99.90;;;;;;5048293;28;20194;-73
2023/05/17 05:41:27;;;;;;;10.17;5.60;;;11.40;99.90;;;;;;5048769;28;20329;-73
2023/05/17 05:43:53;;;;;;;14.43;6.07;;;11.40;99.90;;;;;;5048660;28;21017;-75
2023/05/17 05:46:18;;;;;;;7.47;4.80;;;11.50;99.90;;;;;;5048980;28;20185;-74
2023/05/17 05:48:44;;;;;;;11.50;5.03;;;11.60;99.90;;;;;;5048812;28;20181;-75
2023/05/17 05:51:10;;;;;;;8.27;4.63;;;11.60;99.90;;;;;;5046484;28;20221;-74
2023/05/17 05:53:35;;;;;;;7.47;4.67;;;11.70;99.90;;;;;;5041909;28;20209;-75
2023/05/17 05:56:02;;;;;;;10.20;4.60;;;11.80;99.90;;;;;;5040095;28;20178;-74
2023/05/17 05:58:28;;;;;;;12.07;5.63;;;11.90;99.90;;;;;;5044194;28;20930;-75
2023/05/17 06:00:56;;;;;;;11.57;4.30;;;12.00;99.90;;;;;;5039857;28;20440;-74
2023/05/17 06:03:22;;;;;;;10.37;3.90;;;12.10;99.90;;;;;;5043143;28;20460;-74
2023/05/17 06:05:47;;;;;;;11.60;4.30;;;12.20;99.90;;;;;;5048532;28;20416;-74
2023/05/17 06:08:13;;;;;;;7.67;3.67;;;12.30;99.90;;;;;;5046953;28;20408;-75
2023/05/17 06:10:39;;;;;;;14.70;4.20;;;12.40;99.90;;;;;;5047200;28;20181;-74
2023/05/17 06:13:05;;;;;;;8.80;4.00;;;12.50;99.90;;;;;;5045367;28;20206;-74
2023/05/17 06:15:31;;;;;;;8.67;4.43;;;12.60;99.90;;;;;;5036385;28;20209;-74
2023/05/17 06:17:58;;;;;;;14.80;4.30;;;12.70;99.90;;;;;;5031316;28;20578;-75
2023/05/17 06:20:23;;;;;;;10.97;4.00;;;12.80;99.90;;;;;;5039541;28;20493;-75
2023/05/17 06:22:49;;;;;;;9.10;3.10;;;12.80;99.90;;;;;;5047754;28;20248;-75
2023/05/17 06:25:15;;;;;;;11.23;3.67;;;12.80;99.90;;;;;;5046777;28;20178;-74
2023/05/17 06:27:41;;;;;;;8.90;3.30;;;12.90;99.90;;;;;;5041579;28;20244;-75
2023/05/17 06:30:07;;;;;;;10.20;3.20;;;12.90;99.90;;;;;;5040223;28;20515;-74
2023/05/17 06:32:33;;;;;;;7.10;3.60;;;12.90;99.90;;;;;;5041866;28;20482;-75
2023/05/17 06:34:59;;;;;;;8.10;3.30;;;12.90;99.90;;;;;;5043285;28;20892;-75
2023/05/17 06:37:25;;;;;;;10.80;3.37;;;12.90;99.90;;;;;;5048167;28;20504;-74
2023/05/17 06:39:51;;;;;;;5.90;3.00;;;12.90;99.90;;;;;;5040911;28;20562;-75
2023/05/17 06:42:17;;;;;;;9.70;3.07;;;12.90;99.90;;;;;;5041528;28;20217;-75
2023/05/17 06:44:43;;;;;;;6.67;3.40;;;12.80;99.90;;;;;;5033758;28;20448;-75
2023/05/17 06:47:09;;;;;;;7.30;3.37;;;12.80;99.90;;;;;;5026351;28;20441;-75
2023/05/17 06:49:35;;;;;;;13.00;3.50;;;12.70;99.90;;;;;;5026684;28;20456;-75
2023/05/17 06:52:02;;;;;;;10.57;3.60;;;12.70;99.90;;;;;;5027050;28;20438;-74
2023/05/17 06:54:31;;;;;;;7.50;3.03;;;12.80;99.90;;;;;;5026409;28;20441;-74
2023/05/17 06:57:03;;;;;;;5.77;2.10;;;12.60;99.90;;;;;;5026863;28;20798;-75
2023/05/17 06:59:29;;;;;;;7.50;2.93;;;12.60;99.90;;;;;;5027482;28;20433;-75
2023/05/17 07:01:55;;;;;;;6.00;2.43;;;12.60;99.90;;;;;;5027925;28;20457;-75
2023/05/17 07:04:21;;;;;;;8.90;2.63;;;12.60;99.90;;;;;;5039699;28;20811;-74
2023/05/17 07:06:46;;;;;;;8.23;2.77;;;12.70;99.90;;;;;;5046377;28;20412;-74
2023/05/17 07:09:12;;;;;;;6.93;2.60;;;12.70;99.90;;;;;;5047638;28;20700;-74
2023/05/17 07:11:38;;;;;;;12.33;3.27;;;12.80;99.90;;;;;;5046490;28;20545;-75
2023/05/17 07:14:04;;;;;;;8.33;2.60;;;12.90;99.90;;;;;;5047477;28;20463;-75
2023/05/17 07:16:30;;;;;;;8.13;3.40;;;13.00;99.90;;;;;;5047716;28;20569;-75
2023/05/17 07:18:55;;;;;;;6.90;2.43;;;13.10;99.90;;;;;;5047590;28;20182;-75
2023/05/17 07:21:22;;;;;;;11.90;3.00;;;13.20;99.90;;;;;;5047555;28;20178;-75
2023/05/17 07:23:49;;;;;;;6.83;2.27;;;13.30;99.90;;;;;;5047279;28;20492;-75
2023/05/17 07:26:17;;;;;;;10.10;3.00;;;13.30;99.90;;;;;;5047565;28;20831;-74
2023/05/17 07:28:43;;;;;;;5.70;2.40;;;13.10;99.90;;;;;;5046644;28;20917;-75
2023/05/17 07:31:09;;;;;;;4.83;2.20;;;13.10;99.90;;;;;;5050359;28;20469;-74
2023/05/17 07:33:36;;;;;;;5.93;2.40;;;13.10;99.90;;;;;;5051358;28;20244;-74
2023/05/17 07:36:02;;;;;;;8.37;2.53;;;13.10;99.90;;;;;;5050279;28;20427;-75
2023/05/17 07:38:27;;;;;;;4.97;2.60;;;13.20;99.90;;;;;;5049202;28;20420;-75
2023/05/17 07:40:53;;;;;;;4.80;2.10;;;13.20;99.90;;;;;;5051027;28;20542;-74
2023/05/17 07:43:18;;;;;;;13.53;2.70;;;13.30;99.90;;;;;;5049378;28;20217;-75
2023/05/17 07:45:44;;;;;;;4.70;2.23;;;13.30;99.90;;;;;;5050096;28;20263;-75
2023/05/17 07:48:10;;;;;;;9.20;2.30;;;13.30;99.90;;;;;;5050784;28;20175;-75
2023/05/17 07:50:36;;;;;;;5.73;2.40;;;13.30;99.90;;;;;;5050090;28;20209;-74
2023/05/17 07:53:01;;;;;;;4.33;1.90;;;13.30;99.90;;;;;;5050843;28;20558;-74
2023/05/17 07:55:27;;;;;;;7.60;2.03;;;13.20;99.90;;;;;;5049282;28;20685;-75
2023/05/17 07:57:52;;;;;;;7.40;2.40;;;13.20;99.90;;;;;;5050741;28;20182;-75
2023/05/17 08:00:19;;;;;;;7.10;1.80;;;13.10;99.90;;;;;;5050315;28;20208;-74
2023/05/17 08:02:45;;;;;;;6.87;2.90;;;13.00;99.90;;;;;;5050614;28;20719;-75
2023/05/17 08:05:11;;;;;;;5.10;2.40;;;13.00;99.90;;;;;;5050570;28;20760;-74
2023/05/17 08:07:36;;;;;;;11.50;2.70;;;13.00;99.90;;;;;;5049266;28;20499;-74
2023/05/17 08:10:02;;;;;;;9.50;2.80;;;13.10;99.90;;;;;;5050265;28;20265;-74
2023/05/17 08:12:28;;;;;;;9.57;2.80;;;13.10;99.90;;;;;;5050467;28;20243;-75
2023/05/17 08:14:54;;;;;;;10.67;2.90;;;13.10;99.90;;;;;;5050249;28;20858;-75
2023/05/17 08:17:21;;;;;;;4.90;2.33;;;13.20;99.90;;;;;;5049078;28;20190;-75
2023/05/17 08:19:46;;;;;;;6.67;2.10;;;13.30;99.90;;;;;;5049228;28;20197;-74
2023/05/17 08:22:12;;;;;;;3.63;1.90;;;13.30;99.90;;;;;;5050475;28;20455;-75
2023/05/17 08:24:38;;;;;;;5.70;2.30;;;13.30;99.90;;;;;;5050465;28;20170;-75
2023/05/17 08:27:04;;;;;;;4.63;2.80;;;13.30;99.90;;;;;;5050228;28;20545;-75
2023/05/17 08:29:30;;;;;;;4.63;2.10;;;13.30;99.90;;;;;;5050188;28;20604;-74
2023/05/17 08:31:56;;;;;;;5.17;1.83;;;13.30;99.90;;;;;;5050229;28;20499;-75
2023/05/17 08:34:23;;;;;;;4.87;2.17;;;13.30;99.70;;;;;;5049757;28;20210;-75
2023/05/17 08:36:49;;;;;;;5.93;1.93;;;13.40;99.90;;;;;;5050167;28;20943;-75
2023/05/17 08:39:15;;;;;;;6.13;2.90;;;13.50;99.90;;;;;;5048587;28;20412;-74
2023/05/17 08:41:40;;;;;;;7.67;2.10;;;13.50;99.20;;;;;;5048989;28;20236;-75
2023/05/17 08:44:07;;;;;;;3.93;1.97;;;13.50;99.90;;;;;;5049621;28;20236;-75
2023/05/17 08:46:35;;;;;;;7.90;2.73;;;13.50;99.90;;;;;;5050100;28;20192;-75
2023/05/17 08:49:03;;;;;;;4.50;1.77;;;13.60;99.90;;;;;;5048422;28;20622;-75
2023/05/17 08:51:30;;;;;;;5.83;1.70;;;13.70;99.30;;;;;;5048748;28;20416;-75
2023/05/17 08:53:56;;;;;;;5.57;2.33;;;13.70;98.40;;;;;;5048216;28;20812;-74
2023/05/17 08:56:24;;;;;;;6.97;2.67;;;13.70;97.80;;;;;;5049772;28;20404;-75
2023/05/17 08:58:55;;;;;;;5.53;1.90;;;13.70;97.70;;;;;;5049395;28;20507;-75
2023/05/17 09:01:21;;;;;;;7.00;2.43;;;13.80;97.80;;;;;;5049434;28;20420;-75
2023/05/17 09:03:48;;;;;;;7.63;2.57;;;13.90;98.10;;;;;;5049039;28;20496;-75
2023/05/17 09:06:24;;;;;;;3.13;2.70;;;14.00;97.40;;;;;;5050149;28;20959;-74
2023/05/17 09:08:53;;;;;;;8.33;2.70;;;13.90;96.90;;;;;;5048051;28;20959;-75
2023/05/17 09:11:29;;;;;;;12.23;4.97;;;13.90;98.40;;;;;;5049459;28;20424;-75
2023/05/17 09:14:00;;;;;;;6.67;2.67;;;14.00;98.90;;;;;;5047984;28;20477;-75
2023/05/17 09:16:30;;;;;;;8.43;3.30;;;14.00;99.40;;;;;;5049724;28;20448;-75
2023/05/17 09:18:57;;;;;;;9.63;3.60;;;14.00;98.30;;;;;;5049396;28;20554;-75
2023/05/17 09:21:24;;;;;;;5.37;2.47;;;14.10;99.00;;;;;;5049347;28;20446;-75
2023/05/17 09:23:53;;;;;;;5.33;2.30;;;14.20;97.90;;;;;;5047555;28;20460;-74
2023/05/17 09:26:20;;;;;;;6.73;2.27;;;14.30;97.40;;;;;;5029516;28;20420;-75
2023/05/17 09:28:47;;;;;;;5.37;3.20;;;14.50;98.30;;;;;;5029190;28;20408;-75
2023/05/17 09:31:16;;;;;;;3.83;2.60;;;14.70;98.40;;;;;;5029210;28;20417;-74
2023/05/17 09:33:48;;;;;;;7.77;3.20;;;14.90;97.90;;;;;;5028872;28;20429;-75
2023/05/17 09:36:19;;;;;;;4.67;2.60;;;15.00;96.20;;;;;;5029443;28;20412;-75
2023/05/17 09:39:00;;;;;;;4.53;2.00;;;15.10;97.60;;;;;;5027724;28;20409;-75
2023/05/17 09:41:26;;;;;;;4.17;2.33;;;15.20;96.90;;;;;;5041646;28;20515;-75
2023/05/17 09:43:56;;;;;;;8.87;2.87;;;15.20;96.30;;;;;;5040944;28;20475;-75
2023/05/17 09:46:22;;;;;;;9.00;2.40;;;15.10;94.20;;;;;;5043318;28;20507;-75
2023/05/17 09:48:53;;;;;;;9.13;2.80;;;15.00;95.30;;;;;;5040138;28;20499;-74
2023/05/17 09:51:19;;;;;;;6.77;2.60;;;14.90;96.20;;;;;;5046252;28;20197;-75
2023/05/17 09:53:44;;;;;;;5.87;2.30;;;14.90;96.00;;;;;;5038541;28;20796;-74
2023/05/17 09:56:10;;;;;;;11.30;3.07;;;14.90;96.10;;;;;;5029458;28;20186;-75
2023/05/17 09:58:36;;;;;;;8.10;3.10;;;15.00;97.30;;;;;;5027767;28;20186;-75
2023/05/17 10:01:07;;;;;;;6.13;2.80;;;15.00;97.50;;;;;;5027170;28;20474;-74
2023/05/17 10:03:35;;;;;;;4.93;2.43;;;15.00;97.70;;;;;;5034094;28;20456;-75
2023/05/17 10:06:04;;;;;;;6.30;3.37;;;15.00;97.70;;;;;;5048823;28;20436;-75
2023/05/17 10:08:31;;;;;;;8.30;2.60;;;14.90;96.20;;;;;;5047393;28;20412;-75
2023/05/17 10:11:26;;;;;;;8.17;3.00;;;14.90;96.20;;;;;;5048621;28;20412;-74
2023/05/17 10:14:09;;;;;;;5.80;2.53;;;15.00;96.30;;;;;;5044582;28;20513;-75
2023/05/17 10:16:37;;;;;;;3.37;2.70;;;15.20;96.40;;;;;;5048733;28;20936;-75
2023/05/17 10:19:03;;;;;;;7.10;3.13;;;15.40;96.80;;;;;;5048419;28;20421;-75
2023/05/17 10:21:30;;;;;;;8.43;3.10;;;15.40;95.90;;;;;;5048259;28;20514;-75
2023/05/17 10:23:59;;;;;;;7.67;2.53;;;15.40;96.20;;;;;;5048309;28;20862;-75
2023/05/17 10:26:26;;;;;;;4.97;2.30;;;15.20;95.30;;;;;;5048579;28;20419;-75
2023/05/17 10:28:59;;;;;;;4.63;2.53;;;15.00;93.30;;;;;;5048420;28;20448;-74
2023/05/17 10:31:32;;;;;;;4.77;2.53;;;15.00;94.70;;;;;;5047262;28;20411;-74
2023/05/17 10:34:00;;;;;;;6.87;2.90;;;15.10;95.30;;;;;;5048268;28;20444;-75
2023/05/17 10:36:26;;;;;;;5.87;3.03;;;15.10;95.30;;;;;;5045228;28;20865;-75
2023/05/17 10:38:52;;;;;;;4.80;3.40;;;15.10;96.20;;;;;;5047525;28;20424;-75
2023/05/17 10:41:21;;;;;;;11.13;3.50;;;15.20;96.00;;;;;;5052289;28;20473;-75
2023/05/17 10:43:48;;;;;;;9.97;3.13;;;15.20;96.80;;;;;;5047918;28;20463;-74
2023/05/17 10:46:21;;;;;;;6.63;3.23;;;15.10;96.10;;;;;;5047984;28;20423;-74
2023/05/17 10:48:52;;;;;;;7.07;2.90;;;15.10;95.90;;;;;;5047320;28;21371;-74
2023/05/17 10:51:28;;;;;;;6.40;2.80;;;15.10;96.30;;;;;;5047889;28;20516;-74
2023/05/17 10:54:07;;;;;;;5.57;3.07;;;15.20;96.80;;;;;;5044702;28;21003;-73
2023/05/17 10:56:33;;;;;;;6.40;3.40;;;15.30;97.10;;;;;;5046500;28;20454;-74
2023/05/17 10:59:20;;;;;;;7.67;3.53;;;15.40;96.70;;;;;;5047651;28;20455;-75
2023/05/17 11:02:05;;;;;;;4.70;3.57;;;15.40;96.20;;;;;;5048022;28;20412;-74
2023/05/17 11:04:38;;;;;;;4.73;3.30;;;15.60;96.60;;;;;;5043267;28;20535;-74
2023/05/17 11:07:17;;;;;;;5.60;3.80;;;15.80;97.00;;;;;;5051721;28;20875;-74
2023/05/17 11:10:05;;;;;;;4.97;4.10;;;15.90;95.70;;;;;;5050310;28;20424;-74
2023/05/17 11:12:42;;;;;;;6.10;3.80;;;15.80;93.80;;;;;;5051573;28;20459;-74
2023/05/17 11:15:09;;;;;;;9.50;3.87;;;15.80;94.50;;;;;;5051758;28;20517;-74
2023/05/17 11:17:49;;;;;;;6.17;2.83;;;15.70;94.20;;;;;;5049967;28;20424;-74
2023/05/17 11:20:15;;;;;;;8.60;4.00;;;15.80;95.70;;;;;;5051608;28;20427;-74
2023/05/17 11:22:53;;;;;;;5.40;3.20;;;15.80;94.90;;;;;;5051359;28;21218;-75
2023/05/17 11:25:20;;;;;;;3.87;2.90;;;15.90;95.30;;;;;;5044241;28;20204;-74
2023/05/17 11:27:50;;;;;;;4.80;2.87;;;16.00;94.20;;;;;;5051745;28;20542;-74
2023/05/17 11:30:20;;;;;;;7.23;3.30;;;16.00;94.30;;;;;;5051296;28;20412;-74
2023/05/17 11:32:50;;;;;;;4.47;3.33;;;16.00;94.40;;;;;;5051384;28;20435;-74
2023/05/17 11:35:17;;;;;;;5.80;3.63;;;16.20;94.10;;;;;;5050149;28;20829;-74
2023/05/17 11:37:44;;;;;;;6.03;3.67;;;16.20;93.90;;;;;;5050757;28;20424;-74
2023/05/17 11:40:12;;;;;;;6.63;3.10;;;16.30;93.60;;;;;;5051151;28;20423;-74
2023/05/17 11:42:38;;;;;;;5.10;3.37;;;16.30;93.90;;;;;;5050850;28;20984;-74
2023/05/17 11:45:05;;;;;;;5.83;3.57;;;16.20;93.20;;;;;;5051035;28;20420;-74
2023/05/17 11:47:31;;;;;;;4.43;3.40;;;16.20;93.30;;;;;;5050711;28;20420;-75
2023/05/17 11:50:02;;;;;;;5.23;2.93;;;16.30;93.30;;;;;;5049783;28;20423;-75
2023/05/17 11:52:29;;;;;;;5.43;2.60;;;16.40;92.40;;;;;;5049786;28;20420;-74
2023/05/17 11:54:59;;;;;;;5.23;2.50;;;16.40;90.20;;;;;;5049492;28;20412;-74
2023/05/17 11:57:31;;;;;;;4.83;2.17;;;16.50;91.70;;;;;;5050994;28;20448;-75
2023/05/17 12:00:01;;;;;;;4.77;2.17;;;16.60;91.90;;;;;;5051219;28;20439;-74
2023/05/17 12:02:29;;;;;;;3.90;2.60;;;16.70;92.20;;;;;;5051060;28;20471;-74
2023/05/17 12:04:54;;;;;;;4.83;2.30;;;16.80;91.40;;;;;;5050678;28;20412;-75
2023/05/17 12:07:20;;;;;;;4.53;2.70;;;16.90;90.40;;;;;;5050694;28;20404;-74
2023/05/17 12:09:46;;;;;;;6.07;2.40;;;17.00;91.10;;;;;;5050876;28;20185;-74
2023/05/17 12:12:12;;;;;;;5.83;2.70;;;16.90;88.90;;;;;;5049940;28;20412;-75
2023/05/17 12:14:41;;;;;;;4.73;2.47;;;17.10;90.30;;;;;;5050621;28;20440;-75
2023/05/17 12:17:08;;;;;;;4.67;2.33;;;17.00;88.90;;;;;;5049460;28;20927;-74
2023/05/17 12:19:34;;;;;;;3.20;1.80;;;17.00;88.40;;;;;;5050767;28;20447;-75
2023/05/17 12:22:13;;;;;;;6.70;2.03;;;17.00;90.00;;;;;;5050662;28;20880;-74
2023/05/17 12:24:41;;;;;;;4.70;2.10;;;16.80;90.30;;;;;;5050218;28;20193;-74
2023/05/17 12:27:07;;;;;;;7.33;3.23;;;16.80;91.00;;;;;;5048727;28;20419;-74
2023/05/17 12:29:33;;;;;;;4.53;1.90;;;16.80;90.70;;;;;;5050252;28;20439;-75
2023/05/17 12:32:00;;;;;;;6.07;2.40;;;16.70;90.50;;;;;;5049057;28;20424;-74
2023/05/17 12:34:29;;;;;;;5.30;2.13;;;16.80;90.70;;;;;;5049873;28;20208;-75
2023/05/17 12:36:56;;;;;;;5.57;3.07;;;16.90;91.00;;;;;;5049832;28;20495;-74
2023/05/17 12:39:23;;;;;;;5.77;2.13;;;16.90;88.10;;;;;;5048505;28;20420;-75
2023/05/17 12:41:52;;;;;;;10.57;2.60;;;17.00;90.70;;;;;;5050159;28;20422;-74
2023/05/17 12:44:19;;;;;;;5.67;2.20;;;17.10;90.90;;;;;;5049762;28;21213;-75
2023/05/17 12:46:56;;;;;;;6.20;2.30;;;16.90;87.60;;;;;;5049870;28;20408;-74
2023/05/17 12:49:22;;;;;;;6.60;2.77;;;16.70;87.10;;;;;;5049866;28;20408;-74